Terminal Aerodrome Forecast
Issued by NWS

Home | Current Version | Previous Version | Text Only | Print | Product List | Glossary On
Versions: 1 2 3 4 5 6 7 8 9 10 11 12 13 14 15 16 17 18 19 20 21 22 23
000
FTUS43 KBIS 020500
TAFMOT
TAF
KMOT 020531Z 0206/0306 22006KT P6SM SCT070 BKN100
     FM020900 22007KT P6SM SCT070
     FM021500 24015G23KT P6SM BKN060
     FM021800 26018G26KT P6SM -SHRA VCTS SCT025 BKN035CB OVC060
     FM022100 29024G34KT P6SM BKN040 BKN060 OVC250=

USA.gov is the U.S. government's official web portal to all federal, state and local government web resources and services.